Whistler, Alabama
Current Conditions -  °F | °C
As of 10:56 PM on Wednesday 17 Dec 2014 (Local Time) from KMOB Reporting Station
Scattered Clouds Scattered Clouds  
Wind Chill:   Ceiling: Unl
Heat Index:   Visibility: 10mi
Dew Point:   Wind: 0mph
Humidity: 97%   Direction: NA
Pressure: 30.2"   Gusts: NA
Location:  30.7534°N, 88.1122°W
Report Text: KMOB 180456Z 00000KT 10SM FEW010 SCT250 06/06 A3020 RMK AO2 SLP227 T00610056
Loading
Personal Weather Stations






























Interactive Weather Map New forecast layout! Learn more

10-Day Weather Forecast

Advertisements
Track Severe Weather on mobile